Time;durP1;ratioP1;P1;durP2;ratioP2;P2;SDS_P1;SDS_P2;PMS_P1;PMS_P2;Temp;Humidity;BMP_temperature;BMP_pressure;BME280_temperature;BME280_humidity;BME280_pressure;Samples;Min_cycle;Max_cycle;Signal;HPM_P1;HPM_P2
2023/11/24 00:00:48;;;;;;;16.30;2.40;;;;;;;11.86;67.10;101694.69;5009903;28;20037;-45
2023/11/24 00:03:13;;;;;;;9.18;1.70;;;;;;;11.86;64.34;101689.44;5009376;28;20038;-49
2023/11/24 00:05:39;;;;;;;13.50;1.90;;;;;;;11.45;63.57;101691.13;5009929;28;20080;-48
2023/11/24 00:08:05;;;;;;;10.43;1.70;;;;;;;11.98;61.81;101680.13;5009717;28;20184;-48
2023/11/24 00:10:30;;;;;;;11.05;1.85;;;;;;;12.34;60.32;101679.97;5010045;28;20109;-45
2023/11/24 00:12:56;;;;;;;11.25;1.85;;;;;;;12.40;59.50;101676.59;5009681;28;20044;-45
2023/11/24 00:15:22;;;;;;;12.43;2.00;;;;;;;12.04;59.73;101677.66;5009958;28;20076;-49
2023/11/24 00:17:48;;;;;;;13.88;1.75;;;;;;;12.12;59.47;101681.31;5012858;28;20069;-47
2023/11/24 00:20:15;;;;;;;9.50;1.40;;;;;;;12.37;58.82;101677.44;5012524;28;20037;-44
2023/11/24 00:22:41;;;;;;;15.75;1.80;;;;;;;12.19;59.04;101674.47;5013371;28;20038;-46
2023/11/24 00:25:06;;;;;;;12.75;1.65;;;;;;;12.37;58.87;101677.44;5012379;28;20038;-49
2023/11/24 00:27:32;;;;;;;14.52;1.90;;;;;;;12.63;58.45;101671.78;5013147;28;20506;-47
2023/11/24 00:29:57;;;;;;;10.85;1.60;;;;;;;12.62;58.58;101660.47;5012709;28;20038;-48
2023/11/24 00:32:23;;;;;;;12.48;1.77;;;;;;;12.43;59.10;101658.34;5012446;28;20120;-45
2023/11/24 00:34:48;;;;;;;12.02;2.10;;;;;;;12.99;58.00;101662.81;5013226;28;20068;-48
2023/11/24 00:37:14;;;;;;;14.45;2.28;;;;;;;12.76;58.44;101650.19;5012640;28;20041;-46
2023/11/24 00:39:39;;;;;;;14.63;2.00;;;;;;;12.91;57.82;101643.50;5012749;28;20026;-46
2023/11/24 00:42:05;;;;;;;13.93;2.17;;;;;;;13.18;57.14;101647.41;5012203;28;20046;-47
2023/11/24 00:44:31;;;;;;;14.02;2.22;;;;;;;12.76;58.12;101647.59;5012683;28;20048;-49
2023/11/24 00:46:56;;;;;;;17.27;2.78;;;;;;;12.63;57.55;101670.03;5012780;28;20046;-45
2023/11/24 00:49:21;;;;;;;16.60;2.42;;;;;;;12.73;58.35;101655.41;5012578;28;20112;-44
2023/11/24 00:51:47;;;;;;;12.77;2.25;;;;;;;12.68;58.71;101652.72;5013651;28;20057;-45
2023/11/24 00:54:13;;;;;;;11.85;2.00;;;;;;;12.46;59.36;101656.66;5014689;28;20033;-44
2023/11/24 00:56:38;;;;;;;20.42;2.42;;;;;;;12.72;60.84;101670.22;5016756;28;20037;-45
2023/11/24 00:59:05;;;;;;;16.17;2.33;;;;;;;12.00;66.87;101668.00;5015244;28;20052;-46
2023/11/24 01:01:31;;;;;;;16.55;2.42;;;;;;;11.12;71.05;101691.22;5015354;28;20041;-43
2023/11/24 01:03:58;;;;;;;9.07;1.52;;;;;;;11.08;71.53;101692.00;5015304;28;20030;-45
2023/11/24 01:06:23;;;;;;;10.07;1.63;;;;;;;11.29;70.48;101667.28;5012770;28;20590;-44
2023/11/24 01:08:49;;;;;;;10.15;1.52;;;;;;;10.78;70.45;101655.59;5012206;28;20108;-44
2023/11/24 01:11:14;;;;;;;14.93;2.05;;;;;;;10.93;69.85;101650.75;5011775;28;20125;-47
2023/11/24 01:13:39;;;;;;;10.07;1.67;;;;;;;10.83;70.73;101646.16;5012491;28;20037;-44
2023/11/24 01:16:05;;;;;;;14.73;1.83;;;;;;;10.58;71.35;101644.66;5011794;28;20506;-48
2023/11/24 01:18:32;;;;;;;13.73;1.90;;;;;;;11.09;70.74;101646.78;5011709;28;20060;-48
2023/11/24 01:20:58;;;;;;;12.15;1.63;;;;;;;10.86;69.93;101652.31;5011785;28;20038;-44
2023/11/24 01:23:23;;;;;;;14.32;1.70;;;;;;;11.01;70.18;101651.81;5010107;28;20040;-46
2023/11/24 01:25:49;;;;;;;12.85;2.10;;;;;;;10.91;69.72;101670.72;5012342;28;20096;-48
2023/11/24 01:28:14;;;;;;;12.68;1.52;;;;;;;10.60;72.91;101697.75;5011491;28;20042;-48
2023/11/24 01:30:40;;;;;;;15.02;1.63;;;;;;;10.54;74.32;101692.38;5011442;28;20403;-48
2023/11/24 01:33:06;;;;;;;8.40;1.20;;;;;;;10.76;73.40;101683.38;5011081;28;20088;-46
2023/11/24 01:35:31;;;;;;;8.20;1.33;;;;;;;10.84;73.28;101687.94;5011605;28;20034;-49
2023/11/24 01:37:57;;;;;;;10.60;1.35;;;;;;;10.05;76.60;101692.72;5011383;28;20607;-46
2023/11/24 01:40:23;;;;;;;12.93;1.20;;;;;;;10.18;76.29;101687.03;5009602;28;20034;-46
2023/11/24 01:42:49;;;;;;;7.65;1.10;;;;;;;10.20;75.25;101680.13;5011648;28;20049;-44
2023/11/24 01:45:14;;;;;;;9.75;1.17;;;;;;;10.58;74.76;101665.53;5010217;28;20459;-47
2023/11/24 01:47:40;;;;;;;11.00;1.10;;;;;;;10.50;74.92;101643.56;5011259;28;20036;-50
2023/11/24 01:50:07;;;;;;;11.07;0.98;;;;;;;10.91;73.70;101637.69;5010418;28;20038;-44
2023/11/24 01:52:34;;;;;;;13.52;1.48;;;;;;;10.97;74.06;101636.94;5011748;28;20492;-44
2023/11/24 01:55:01;;;;;;;13.18;1.08;;;;;;;10.61;74.98;101630.84;5012270;28;20075;-45
2023/11/24 01:57:27;;;;;;;10.70;1.40;;;;;;;10.92;73.62;101629.00;5011898;28;20037;-45
2023/11/24 01:59:53;;;;;;;12.55;1.45;;;;;;;10.87;72.96;101622.78;5011063;28;20042;-43
2023/11/24 02:02:20;;;;;;;12.80;1.30;;;;;;;11.00;72.66;101629.19;5011273;28;20033;-47
2023/11/24 02:04:46;;;;;;;16.17;1.30;;;;;;;11.32;71.41;101629.94;5011229;28;20080;-45
2023/11/24 02:07:12;;;;;;;11.07;1.20;;;;;;;11.27;71.44;101632.44;5010687;28;20078;-44
2023/11/24 02:09:37;;;;;;;15.95;1.85;;;;;;;11.06;71.04;101637.16;5011115;28;20053;-44
2023/11/24 02:12:02;;;;;;;10.57;1.48;;;;;;;10.86;71.03;101628.84;5010964;28;20065;-45
2023/11/24 02:14:28;;;;;;;7.47;1.23;;;;;;;11.12;69.60;101628.56;5010407;28;20080;-45
2023/11/24 02:16:53;;;;;;;9.68;1.30;;;;;;;11.22;69.11;101634.03;5012051;28;20389;-46
2023/11/24 02:19:19;;;;;;;7.55;1.38;;;;;;;11.43;68.94;101632.75;5010247;28;20033;-44
2023/11/24 02:21:45;;;;;;;10.20;1.50;;;;;;;11.16;69.42;101620.84;5011167;28;20042;-44
2023/11/24 02:24:11;;;;;;;9.25;1.60;;;;;;;11.20;68.71;101625.31;5011314;28;20045;-43
2023/11/24 02:26:36;;;;;;;11.35;1.40;;;;;;;11.03;67.26;101620.56;5011401;28;20049;-45
2023/11/24 02:29:02;;;;;;;8.82;1.38;;;;;;;11.27;67.49;101606.34;5011945;28;20033;-46
2023/11/24 02:31:27;;;;;;;7.60;1.05;;;;;;;11.27;67.11;101608.06;5011780;28;20042;-47
2023/11/24 02:33:53;;;;;;;12.30;1.60;;;;;;;11.26;66.87;101598.47;5011096;28;20033;-47
2023/11/24 02:36:20;;;;;;;10.82;1.45;;;;;;;11.15;66.95;101602.56;5010324;28;20072;-49
2023/11/24 02:38:49;;;;;;;12.77;1.45;;;;;;;11.22;66.99;101601.88;5009699;28;20030;-51
2023/11/24 02:41:18;;;;;;;7.45;1.20;;;;;;;10.94;65.88;101593.41;5009998;28;20042;-46
2023/11/24 02:43:47;;;;;;;12.95;1.30;;;;;;;11.05;64.09;101579.69;5010644;28;20045;-45
2023/11/24 02:46:13;;;;;;;7.80;1.10;;;;;;;10.87;63.41;101581.03;5009852;28;20483;-46
2023/11/24 02:48:43;;;;;;;15.95;1.60;;;;;;;11.15;62.50;101576.47;5008951;28;20029;-46
2023/11/24 02:51:09;;;;;;;9.10;1.20;;;;;;;11.23;62.07;101564.44;5010106;28;20045;-51
2023/11/24 02:53:37;;;;;;;10.43;1.27;;;;;;;11.36;62.17;101562.13;5010938;28;20034;-49
2023/11/24 02:56:03;;;;;;;10.40;1.60;;;;;;;11.46;61.39;101562.34;5010036;28;20034;-45
2023/11/24 02:58:29;;;;;;;6.63;1.30;;;;;;;11.34;61.56;101563.81;5009679;28;20125;-49
2023/11/24 03:00:55;;;;;;;10.40;1.27;;;;;;;11.47;60.92;101558.88;5010344;28;20034;-46
2023/11/24 03:03:22;;;;;;;7.45;1.13;;;;;;;11.21;60.89;101555.72;5009814;28;20112;-44
2023/11/24 03:05:48;;;;;;;9.55;1.17;;;;;;;11.35;59.21;101543.81;5008752;28;20033;-45
2023/11/24 03:08:13;;;;;;;8.48;1.40;;;;;;;11.39;58.83;101558.72;5010140;28;20038;-46
2023/11/24 03:10:39;;;;;;;9.50;1.35;;;;;;;11.56;58.48;101559.06;5010950;28;20026;-45
2023/11/24 03:13:05;;;;;;;11.38;1.60;;;;;;;11.52;57.68;101557.25;5010082;28;20038;-47
2023/11/24 03:15:31;;;;;;;6.72;1.20;;;;;;;11.34;57.78;101553.38;5009928;28;20041;-46
2023/11/24 03:17:56;;;;;;;9.00;1.42;;;;;;;11.44;57.30;101549.25;5010121;28;20030;-48
2023/11/24 03:20:21;;;;;;;10.80;1.50;;;;;;;11.36;56.96;101541.25;5009538;28;20037;-46
2023/11/24 03:22:48;;;;;;;10.35;1.40;;;;;;;11.51;56.93;101534.59;5010241;28;20057;-44
2023/11/24 03:25:13;;;;;;;8.23;1.20;;;;;;;11.66;56.68;101530.53;5009626;28;20042;-47
2023/11/24 03:27:38;;;;;;;8.93;1.63;;;;;;;11.38;57.49;101520.41;5010329;28;20381;-48
2023/11/24 03:30:04;;;;;;;13.57;1.35;;;;;;;11.43;56.97;101526.59;5010423;28;20038;-44
2023/11/24 03:32:30;;;;;;;16.27;1.38;;;;;;;11.45;57.04;101526.63;5009983;28;20531;-48
2023/11/24 03:34:55;;;;;;;9.55;1.48;;;;;;;11.52;56.88;101512.88;5008933;28;20038;-50
2023/11/24 03:37:21;;;;;;;9.63;1.20;;;;;;;11.56;57.43;101506.84;5009621;28;20038;-48
2023/11/24 03:39:46;;;;;;;10.77;1.23;;;;;;;11.72;57.74;101509.75;5010000;28;20132;-49
2023/11/24 03:42:12;;;;;;;11.02;1.60;;;;;;;11.43;57.92;101520.50;5010263;28;20065;-44
2023/11/24 03:44:38;;;;;;;6.95;1.30;;;;;;;12.01;57.24;101515.56;5010258;28;20049;-48
2023/11/24 03:47:04;;;;;;;9.20;1.40;;;;;;;11.82;57.75;101521.31;5010316;28;20408;-47
2023/11/24 03:49:29;;;;;;;13.43;1.35;;;;;;;11.69;57.68;101512.34;5008742;28;20048;-51
2023/11/24 03:51:55;;;;;;;7.75;1.20;;;;;;;11.79;57.77;101506.44;5012839;28;20484;-50
2023/11/24 03:54:21;;;;;;;12.77;1.30;;;;;;;11.97;57.71;101508.50;5013641;28;20032;-48
2023/11/24 03:56:47;;;;;;;11.85;1.55;;;;;;;11.60;57.58;101500.81;5014152;28;20049;-44
2023/11/24 03:59:13;;;;;;;13.07;1.70;;;;;;;11.89;56.22;101507.50;5013629;28;20037;-46
2023/11/24 04:01:38;;;;;;;12.20;1.88;;;;;;;12.02;56.06;101498.13;5014784;28;20084;-49
2023/11/24 04:04:03;;;;;;;12.98;1.52;;;;;;;11.94;55.87;101494.53;5014004;28;20124;-45
2023/11/24 04:06:29;;;;;;;8.85;1.45;;;;;;;11.85;54.64;101497.84;5015660;28;20484;-47
2023/11/24 04:08:54;;;;;;;11.00;1.42;;;;;;;12.16;53.78;101489.69;5017458;28;20041;-48
2023/11/24 04:11:19;;;;;;;14.85;1.30;;;;;;;12.04;54.10;101488.59;5015211;28;20034;-45
2023/11/24 04:13:45;;;;;;;12.05;1.73;;;;;;;11.81;54.11;101493.44;5015355;28;20036;-45
2023/11/24 04:16:10;;;;;;;14.40;1.75;;;;;;;11.90;57.44;101506.63;5013506;28;20126;-51
2023/11/24 04:18:35;;;;;;;12.25;1.60;;;;;;;11.35;59.35;101507.28;5012939;28;20052;-46
2023/11/24 04:21:01;;;;;;;10.43;1.48;;;;;;;11.47;59.27;101497.06;5013163;28;20061;-48
2023/11/24 04:23:26;;;;;;;10.77;1.60;;;;;;;11.44;60.32;101489.22;5012636;28;20030;-50
2023/11/24 04:25:52;;;;;;;7.35;1.30;;;;;;;11.54;59.59;101498.97;5012810;28;20032;-45
2023/11/24 04:28:17;;;;;;;9.38;1.38;;;;;;;11.52;59.72;101494.59;5012049;28;20037;-49
2023/11/24 04:30:42;;;;;;;17.10;1.98;;;;;;;11.81;58.99;101490.81;5013214;28;20062;-46
2023/11/24 04:33:08;;;;;;;10.40;1.45;;;;;;;11.75;58.61;101483.75;5011323;28;20389;-46
2023/11/24 04:35:33;;;;;;;9.75;1.30;;;;;;;11.48;57.48;101477.97;5013194;28;20133;-49
2023/11/24 04:37:59;;;;;;;12.20;1.20;;;;;;;11.45;58.59;101472.69;5012845;28;20044;-45
2023/11/24 04:40:25;;;;;;;11.02;1.77;;;;;;;11.43;58.26;101482.22;5011999;28;20041;-45
2023/11/24 04:42:52;;;;;;;9.20;1.52;;;;;;;11.32;59.03;101486.34;5012843;28;20045;-47
2023/11/24 04:45:17;;;;;;;13.65;1.70;;;;;;;11.26;59.57;101481.00;5012936;28;20044;-45
2023/11/24 04:47:43;;;;;;;14.13;1.70;;;;;;;11.71;58.31;101481.88;5013687;28;20038;-44
2023/11/24 04:50:09;;;;;;;11.68;1.77;;;;;;;11.50;58.61;101473.66;5012766;28;20042;-45
2023/11/24 04:52:35;;;;;;;9.15;1.60;;;;;;;11.71;58.79;101476.66;5013932;28;20034;-45
2023/11/24 04:55:00;;;;;;;11.95;1.70;;;;;;;11.57;58.05;101475.53;5014624;28;20041;-49
2023/11/24 04:57:25;;;;;;;12.52;1.30;;;;;;;11.72;58.08;101474.91;5014872;28;20034;-45
2023/11/24 04:59:51;;;;;;;8.50;1.30;;;;;;;12.15;56.74;101473.97;5015138;28;20094;-47
2023/11/24 05:02:16;;;;;;;10.10;1.60;;;;;;;11.44;58.36;101478.75;5013160;28;20046;-49
2023/11/24 05:04:41;;;;;;;10.38;1.33;;;;;;;11.13;59.42;101494.66;5012557;28;20047;-47
2023/11/24 05:07:07;;;;;;;11.07;1.38;;;;;;;10.73;64.69;101511.16;5012328;28;20165;-48
2023/11/24 05:09:32;;;;;;;9.85;1.40;;;;;;;10.50;66.86;101498.47;5012390;28;20025;-45
2023/11/24 05:11:57;;;;;;;11.90;1.35;;;;;;;10.22;69.52;101490.84;5012741;28;20053;-46
2023/11/24 05:14:23;;;;;;;13.30;1.27;;;;;;;10.11;71.40;101476.63;5013586;28;20056;-47
2023/11/24 05:16:48;;;;;;;9.38;1.50;;;;;;;10.14;71.68;101466.28;5014589;28;20038;-44
2023/11/24 05:19:14;;;;;;;13.98;1.90;;;;;;;10.02;71.44;101474.66;5012077;28;20575;-45
2023/11/24 05:21:40;;;;;;;11.63;1.13;;;;;;;10.30;70.52;101464.97;5012384;28;20042;-45
2023/11/24 05:24:08;;;;;;;10.15;1.38;;;;;;;10.25;70.25;101471.78;5010029;28;20045;-50
2023/11/24 05:26:34;;;;;;;9.48;1.23;;;;;;;10.44;69.02;101460.94;5011692;28;20038;-46
2023/11/24 05:28:59;;;;;;;13.30;1.20;;;;;;;10.34;68.92;101465.06;5011737;28;20581;-48
2023/11/24 05:31:25;;;;;;;11.35;1.65;;;;;;;10.16;67.15;101462.00;5011115;28;22257;-47
2023/11/24 05:33:51;;;;;;;8.75;1.40;;;;;;;10.42;65.16;101447.91;5011903;28;20495;-48
2023/11/24 05:36:18;;;;;;;11.80;1.30;;;;;;;10.39;63.87;101452.13;5011230;28;20041;-52
2023/11/24 05:38:44;;;;;;;9.23;1.33;;;;;;;10.93;62.52;101442.03;5011466;28;20542;-51
2023/11/24 05:41:10;;;;;;;10.90;1.40;;;;;;;10.73;62.04;101449.47;5011339;28;20515;-53
2023/11/24 05:43:35;;;;;;;8.13;1.30;;;;;;;10.58;61.80;101462.16;5011606;28;20044;-46
2023/11/24 05:46:00;;;;;;;9.90;1.30;;;;;;;10.49;61.69;101455.00;5011521;28;20487;-52
2023/11/24 05:48:26;;;;;;;10.52;1.40;;;;;;;10.45;62.54;101442.75;5010703;28;20109;-48
2023/11/24 05:50:51;;;;;;;8.27;1.00;;;;;;;10.44;61.62;101459.22;5011293;28;20060;-50
2023/11/24 05:53:17;;;;;;;6.80;1.10;;;;;;;10.96;60.08;101457.78;5011927;28;20117;-48
2023/11/24 05:55:42;;;;;;;8.80;1.13;;;;;;;10.86;58.93;101447.97;5012266;28;20040;-46
2023/11/24 05:58:08;;;;;;;10.48;1.30;;;;;;;10.62;58.29;101442.22;5011640;28;20129;-47
2023/11/24 06:00:33;;;;;;;9.63;1.50;;;;;;;10.83;59.22;101438.38;5012119;28;20039;-47
2023/11/24 06:02:59;;;;;;;10.60;1.40;;;;;;;10.92;59.08;101445.50;5011919;28;20034;-50
2023/11/24 06:05:24;;;;;;;11.95;1.65;;;;;;;10.90;59.11;101439.38;5010926;28;20049;-47
2023/11/24 06:07:49;;;;;;;12.32;1.48;;;;;;;11.20;60.23;101441.72;5009779;28;20407;-50
2023/11/24 06:10:16;;;;;;;14.88;2.00;;;;;;;10.77;59.48;101440.84;5010598;28;20030;-49
2023/11/24 06:12:41;;;;;;;11.77;1.40;;;;;;;10.89;56.64;101438.50;5010955;28;20030;-49
2023/11/24 06:15:09;;;;;;;15.63;1.70;;;;;;;11.04;55.59;101437.06;5010029;28;20052;-48
2023/11/24 06:17:35;;;;;;;17.55;2.03;;;;;;;11.13;55.56;101438.13;5011351;28;20038;-47
2023/11/24 06:20:00;;;;;;;16.48;1.80;;;;;;;10.93;56.12;101437.72;5010937;28;20038;-49
2023/11/24 06:22:25;;;;;;;10.68;1.70;;;;;;;10.94;54.80;101434.25;5010428;28;20085;-45
2023/11/24 06:24:52;;;;;;;11.38;1.80;;;;;;;11.08;55.93;101423.22;5009039;28;20514;-44
2023/11/24 06:27:17;;;;;;;10.38;1.60;;;;;;;11.50;53.99;101437.09;5010349;28;20045;-45
2023/11/24 06:29:42;;;;;;;11.77;1.60;;;;;;;11.20;53.59;101418.25;5011253;28;20033;-49
2023/11/24 06:32:11;;;;;;;10.73;1.38;;;;;;;11.21;54.45;101420.00;5011048;28;20120;-46
2023/11/24 06:34:37;;;;;;;9.88;1.52;;;;;;;11.28;54.39;101432.34;5011336;28;20034;-48
2023/11/24 06:37:02;;;;;;;13.82;1.50;;;;;;;11.07;52.91;101424.94;5010894;28;20076;-45
2023/11/24 06:39:27;;;;;;;19.35;1.80;;;;;;;11.13;53.61;101432.03;5009944;28;20034;-46
2023/11/24 06:41:53;;;;;;;10.57;1.38;;;;;;;10.92;53.67;101438.56;5010094;28;20562;-48
2023/11/24 06:44:19;;;;;;;10.25;1.45;;;;;;;11.30;52.98;101459.31;5009812;28;20092;-47
2023/11/24 06:46:44;;;;;;;7.85;1.30;;;;;;;10.29;59.98;101476.25;5010483;28;20032;-45
2023/11/24 06:49:10;;;;;;;9.70;1.48;;;;;;;10.22;64.18;101480.41;5009733;28;20044;-48
2023/11/24 06:51:35;;;;;;;10.60;1.10;;;;;;;10.03;63.65;101463.41;5010814;28;20042;-52
2023/11/24 06:54:01;;;;;;;8.77;1.20;;;;;;;10.35;63.14;101468.56;5010736;28;20041;-45
2023/11/24 06:56:29;;;;;;;8.27;1.13;;;;;;;10.28;63.40;101466.66;5010118;28;20381;-45
2023/11/24 06:58:57;;;;;;;12.73;1.58;;;;;;;9.88;65.79;101483.00;5010447;28;20037;-46
2023/11/24 07:01:34;;;;;;;10.25;1.20;;;;;;;9.84;69.26;101483.72;5010201;28;20037;-46
2023/11/24 07:04:01;;;;;;;8.52;1.27;;;;;;;10.24;70.00;101485.69;5011147;28;20030;-46
2023/11/24 07:06:27;;;;;;;10.43;1.58;;;;;;;9.87;71.73;101476.91;5010415;28;20050;-46
2023/11/24 07:08:52;;;;;;;8.43;1.27;;;;;;;9.56;71.48;101471.72;5011115;28;20061;-48
2023/11/24 07:11:19;;;;;;;7.68;1.15;;;;;;;9.64;72.27;101468.47;5010652;28;20125;-46
2023/11/24 07:13:44;;;;;;;8.25;1.70;;;;;;;9.58;72.31;101449.19;5011415;28;20038;-50
2023/11/24 07:16:09;;;;;;;10.02;1.08;;;;;;;9.70;72.08;101447.81;5010991;28;20034;-47
2023/11/24 07:18:35;;;;;;;8.05;1.00;;;;;;;10.02;71.39;101445.13;5011819;28;20045;-45
2023/11/24 07:21:00;;;;;;;15.18;1.60;;;;;;;9.98;71.26;101440.69;5011266;28;20519;-45
2023/11/24 07:23:25;;;;;;;9.80;1.38;;;;;;;9.75;72.27;101438.41;5010230;28;20048;-44
2023/11/24 07:25:51;;;;;;;9.77;1.42;;;;;;;10.03;71.67;101418.25;5027078;28;20046;-46
2023/11/24 07:28:17;;;;;;;14.45;1.42;;;;;;;10.39;70.55;101420.88;5013223;28;20045;-45
2023/11/24 07:30:42;;;;;;;8.45;1.08;;;;;;;10.54;70.55;101453.38;5014087;28;20038;-44
2023/11/24 07:33:08;;;;;;;13.40;1.70;;;;;;;10.07;71.26;101464.34;5013303;28;20038;-47
2023/11/24 07:35:33;;;;;;;5.40;0.98;;;;;;;8.78;72.56;101492.03;5013719;28;20498;-52
2023/11/24 07:37:58;;;;;;;12.30;1.25;;;;;;;8.65;73.25;101488.16;5013975;28;20049;-45
2023/11/24 07:40:25;;;;;;;12.85;1.42;;;;;;;8.76;74.24;101484.19;5012982;28;20040;-47
2023/11/24 07:42:50;;;;;;;17.85;2.00;;;;;;;8.67;75.73;101478.69;5013114;28;20030;-44
2023/11/24 07:45:16;;;;;;;8.90;1.35;;;;;;;8.75;75.27;101469.41;5013079;28;20050;-48
2023/11/24 07:47:42;;;;;;;13.52;1.25;;;;;;;9.08;74.58;101459.13;5013540;28;20121;-46
2023/11/24 07:50:08;;;;;;;10.68;1.23;;;;;;;8.81;75.29;101454.00;5012956;28;20041;-48
2023/11/24 07:52:34;;;;;;;8.25;0.93;;;;;;;8.75;72.73;101461.59;5013745;28;20405;-45
2023/11/24 07:54:59;;;;;;;6.97;0.85;;;;;;;8.99;72.54;101451.03;5013289;28;20084;-48
2023/11/24 07:57:26;;;;;;;6.85;0.95;;;;;;;9.13;71.96;101443.63;5013099;28;20038;-48
2023/11/24 07:59:52;;;;;;;9.43;1.25;;;;;;;9.48;71.33;101436.78;5013360;28;20034;-45
2023/11/24 08:02:17;;;;;;;15.10;1.40;;;;;;;9.45;70.96;101449.75;5013059;28;20045;-46
2023/11/24 08:04:43;;;;;;;9.40;1.20;;;;;;;9.12;71.50;101473.97;5013568;28;20038;-47
2023/11/24 08:07:09;;;;;;;13.60;1.77;;;;;;;9.10;72.40;101433.13;5013032;28;20097;-45
2023/11/24 08:09:34;;;;;;;9.80;1.60;;;;;;;9.41;70.88;101427.94;5013417;28;20072;-46
2023/11/24 08:12:00;;;;;;;10.52;1.23;;;;;;;9.43;70.62;101438.41;5013222;28;20662;-46
2023/11/24 08:14:25;;;;;;;6.82;0.88;;;;;;;9.23;70.56;101469.06;5012859;28;20103;-50
2023/11/24 08:16:51;;;;;;;5.45;0.90;;;;;;;8.55;73.98;101470.50;5012819;28;20407;-50
2023/11/24 08:19:22;;;;;;;10.10;1.27;;;;;;;8.64;75.66;101455.22;5012338;28;20042;-44
2023/11/24 08:21:47;;;;;;;12.52;1.48;;;;;;;8.70;75.46;101451.91;5013019;28;20518;-45
2023/11/24 08:24:14;;;;;;;13.95;1.45;;;;;;;8.65;75.76;101446.59;5012304;28;20034;-48
2023/11/24 08:26:39;;;;;;;11.55;1.00;;;;;;;8.76;73.67;101423.50;5012902;28;20532;-47
2023/11/24 08:29:04;;;;;;;7.25;1.20;;;;;;;9.21;70.75;101423.94;5012411;28;20030;-47
2023/11/24 08:31:30;;;;;;;8.18;1.10;;;;;;;8.98;72.03;101420.66;5012368;28;20100;-48
2023/11/24 08:33:55;;;;;;;8.35;1.30;;;;;;;9.15;71.38;101414.22;5012583;28;20064;-45
2023/11/24 08:36:20;;;;;;;6.70;1.50;;;;;;;9.13;71.09;101418.50;5011573;28;20069;-49
2023/11/24 08:38:46;;;;;;;12.15;1.63;;;;;;;9.34;69.83;101423.41;5012450;28;20125;-44
2023/11/24 08:41:16;;;;;;;11.95;1.40;;;;;;;9.29;69.10;101419.81;5012507;28;20063;-46
2023/11/24 08:43:42;;;;;;;11.65;1.67;;;;;;;9.22;68.98;101420.47;5012496;28;20172;-45
2023/11/24 08:46:08;;;;;;;15.05;1.65;;;;;;;9.27;70.21;101430.16;5012216;28;20033;-45
2023/11/24 08:48:35;;;;;;;14.10;1.33;;;;;;;9.21;69.79;101410.94;5012332;28;20034;-45
2023/11/24 08:51:00;;;;;;;8.52;1.83;;;;;;;9.22;69.56;101407.47;5012651;28;20049;-50
2023/11/24 08:53:27;;;;;;;10.80;1.20;;;;;;;9.14;67.30;101411.59;5011947;28;20042;-46
2023/11/24 08:55:53;;;;;;;9.40;1.20;;;;;;;9.56;66.97;101425.75;5012546;28;20022;-45
2023/11/24 08:58:18;;;;;;;6.93;1.35;;;;;;;9.44;66.07;101414.13;5014013;28;20133;-44
2023/11/24 09:00:43;;;;;;;8.63;1.23;;;;;;;9.73;64.44;101420.97;5014669;28;20056;-45
2023/11/24 09:03:09;;;;;;;12.82;1.63;;;;;;;9.67;63.70;101400.00;5013016;28;20042;-44
2023/11/24 09:05:34;;;;;;;12.68;2.28;;;;;;;9.64;63.23;101412.91;5013168;28;20050;-46
2023/11/24 09:08:00;;;;;;;9.80;1.38;;;;;;;9.62;63.35;101404.22;5012608;28;20042;-47
2023/11/24 09:10:28;;;;;;;12.32;1.80;;;;;;;9.56;61.13;101402.34;5012226;28;20675;-50
2023/11/24 09:12:53;;;;;;;7.03;1.30;;;;;;;9.88;59.76;101405.72;5012308;28;20045;-49
2023/11/24 09:15:19;;;;;;;9.25;1.48;;;;;;;9.91;59.79;101391.91;5012185;28;20034;-49
2023/11/24 09:17:44;;;;;;;11.45;1.65;;;;;;;9.82;60.75;101397.75;5010836;28;20034;-47
2023/11/24 09:20:16;;;;;;;16.38;1.85;;;;;;;9.40;61.51;101420.09;5012331;28;20061;-44
2023/11/24 09:22:41;;;;;;;12.60;1.50;;;;;;;9.90;56.72;101401.44;5012978;28;20045;-47
2023/11/24 09:25:08;;;;;;;8.50;1.25;;;;;;;9.72;56.67;101403.59;5011287;28;20042;-47
2023/11/24 09:27:34;;;;;;;8.02;1.13;;;;;;;9.54;57.21;101401.41;5012009;28;20037;-46
2023/11/24 09:30:01;;;;;;;8.98;1.30;;;;;;;9.52;57.89;101410.88;5009964;28;20044;-44
2023/11/24 09:32:27;;;;;;;12.63;1.42;;;;;;;9.54;58.10;101414.41;5012384;28;20045;-51
2023/11/24 09:34:52;;;;;;;9.98;1.30;;;;;;;10.14;57.59;101411.56;5012796;28;20037;-46
2023/11/24 09:37:17;;;;;;;13.45;2.03;;;;;;;10.12;58.18;101395.03;5012719;28;20137;-44
2023/11/24 09:39:42;;;;;;;12.85;2.03;;;;;;;9.59;59.79;101407.59;5012914;28;20030;-50
2023/11/24 09:42:11;;;;;;;10.30;1.48;;;;;;;9.75;59.75;101395.88;5011184;28;20573;-45
2023/11/24 09:44:40;;;;;;;15.93;1.70;;;;;;;10.21;57.98;101412.63;5011531;28;20057;-51
2023/11/24 09:47:06;;;;;;;11.18;1.50;;;;;;;10.35;54.95;101387.78;5011205;28;20519;-48
2023/11/24 09:49:32;;;;;;;8.80;1.65;;;;;;;10.07;55.12;101397.50;5011445;28;20121;-46
2023/11/24 09:51:59;;;;;;;11.70;1.52;;;;;;;10.49;53.98;101396.78;5012026;28;20478;-47
2023/11/24 09:54:26;;;;;;;15.45;1.60;;;;;;;10.14;55.01;101401.13;5011717;28;20029;-46
2023/11/24 09:56:52;;;;;;;11.65;1.80;;;;;;;11.04;53.51;101387.50;5011050;28;20060;-49
2023/11/24 09:59:18;;;;;;;10.20;1.48;;;;;;;10.49;54.51;101386.34;5010216;28;20034;-46
2023/11/24 10:01:47;;;;;;;13.77;1.77;;;;;;;10.47;55.36;101388.91;5011170;28;20038;-53
2023/11/24 10:04:12;;;;;;;13.43;1.83;;;;;;;10.47;55.99;101385.44;5010577;28;20121;-47
2023/11/24 10:06:39;;;;;;;13.45;1.88;;;;;;;10.99;54.29;101376.94;5011145;28;20129;-49
2023/11/24 10:09:06;;;;;;;10.80;1.60;;;;;;;10.65;53.25;101396.25;5010780;28;20460;-50
2023/11/24 10:11:33;;;;;;;14.95;1.50;;;;;;;9.98;55.46;101397.31;5010866;28;20030;-44
2023/11/24 10:14:00;;;;;;;18.88;1.80;;;;;;;10.26;58.35;101418.81;5011054;28;20037;-47
2023/11/24 10:16:25;;;;;;;17.50;2.22;;;;;;;9.97;59.16;101411.16;5010567;28;20042;-46
2023/11/24 10:18:51;;;;;;;10.98;1.70;;;;;;;9.68;59.77;101405.25;5010797;28;20083;-51
2023/11/24 10:21:18;;;;;;;10.27;1.58;;;;;;;10.41;57.96;101395.72;5010312;28;20033;-50
2023/11/24 10:23:44;;;;;;;6.13;1.50;;;;;;;10.47;55.82;101393.25;5010540;28;20030;-45
2023/11/24 10:26:15;;;;;;;7.70;1.40;;;;;;;10.13;55.09;101387.22;5009963;28;20044;-48
2023/11/24 10:28:41;;;;;;;11.27;1.27;;;;;;;9.58;55.35;101413.63;5010597;28;20054;-45
2023/11/24 10:31:07;;;;;;;9.07;1.23;;;;;;;10.08;54.95;101375.81;5010561;28;20066;-43
2023/11/24 10:33:33;;;;;;;9.60;1.35;;;;;;;10.06;56.25;101393.13;5010689;28;20473;-45
2023/11/24 10:35:59;;;;;;;10.23;1.50;;;;;;;9.97;56.38;101387.72;5010450;28;20038;-47
2023/11/24 10:38:31;;;;;;;10.07;1.58;;;;;;;10.20;58.81;101377.88;5010298;28;20171;-45
2023/11/24 10:40:58;;;;;;;9.60;1.40;;;;;;;10.40;59.02;101384.41;5010846;28;20037;-45
2023/11/24 10:43:26;;;;;;;11.55;1.42;;;;;;;10.05;59.64;101377.50;5010476;28;20041;-48
2023/11/24 10:45:51;;;;;;;11.05;1.30;;;;;;;9.64;60.36;101389.47;5010797;28;20049;-48
2023/11/24 10:48:47;;;;;;;10.60;1.48;;;;;;;9.50;61.83;101359.66;5010488;28;20030;-46
2023/11/24 10:51:40;;;;;;;8.15;1.67;;;;;;;10.18;59.12;101373.47;5011218;28;20038;-45
2023/11/24 10:54:07;;;;;;;7.00;1.17;;;;;;;9.78;60.04;101359.47;5011761;28;20450;-46
2023/11/24 10:56:36;;;;;;;10.88;1.13;;;;;;;9.66;60.39;101354.84;5010853;28;20510;-49
2023/11/24 10:59:05;;;;;;;7.45;1.10;;;;;;;9.78;60.56;101342.13;5011595;28;20038;-46
2023/11/24 11:01:30;;;;;;;8.52;1.17;;;;;;;9.81;60.09;101345.66;5010892;28;20046;-47
2023/11/24 11:03:56;;;;;;;13.18;1.35;;;;;;;10.28;60.18;101323.31;5011260;28;20069;-46
2023/11/24 11:06:44;;;;;;;15.98;1.77;;;;;;;10.62;57.99;101327.50;5010587;28;20080;-48
2023/11/24 11:09:24;;;;;;;17.27;1.92;;;;;;;10.23;58.29;101324.94;5010915;28;20121;-46
2023/11/24 11:12:19;;;;;;;13.90;1.75;;;;;;;10.19;52.85;101329.19;5011185;28;20030;-50
2023/11/24 11:14:44;;;;;;;;;;;;;;;10.57;52.54;101306.56;5011289;28;20040;-42
2023/11/24 11:17:18;;;;;;;11.93;1.30;;;;;;;10.43;53.31;101308.03;5010283;28;19917;-49